sensor_id;sensor_type;location;lat;lon;timestamp;temperature;humidity
7814;DHT22;3952;48.364;16.022;2023-04-19T00:01:33;9.40;99.90
7814;DHT22;3952;48.364;16.022;2023-04-19T00:04:00;9.40;99.90
7814;DHT22;3952;48.364;16.022;2023-04-19T00:06:28;9.30;99.90
7814;DHT22;3952;48.364;16.022;2023-04-19T00:08:56;9.40;99.90
7814;DHT22;3952;48.364;16.022;2023-04-19T00:11:25;9.40;99.90
7814;DHT22;3952;48.364;16.022;2023-04-19T00:13:52;9.40;99.90
7814;DHT22;3952;48.364;16.022;2023-04-19T00:16:19;9.50;99.90
7814;DHT22;3952;48.364;16.022;2023-04-19T00:18:46;9.50;99.90
7814;DHT22;3952;48.364;16.022;2023-04-19T00:21:14;9.50;99.90
7814;DHT22;3952;48.364;16.022;2023-04-19T00:23:41;9.40;99.90
7814;DHT22;3952;48.364;16.022;2023-04-19T00:26:08;9.50;99.90
7814;DHT22;3952;48.364;16.022;2023-04-19T00:28:39;9.50;99.90
7814;DHT22;3952;48.364;16.022;2023-04-19T00:31:06;9.40;99.90
7814;DHT22;3952;48.364;16.022;2023-04-19T00:33:33;9.40;99.90
7814;DHT22;3952;48.364;16.022;2023-04-19T00:36:00;9.40;99.90
7814;DHT22;3952;48.364;16.022;2023-04-19T00:38:27;9.30;99.90
7814;DHT22;3952;48.364;16.022;2023-04-19T00:40:55;9.30;99.90
7814;DHT22;3952;48.364;16.022;2023-04-19T00:43:22;9.30;99.90
7814;DHT22;3952;48.364;16.022;2023-04-19T00:45:50;9.20;99.90
7814;DHT22;3952;48.364;16.022;2023-04-19T00:48:18;9.20;99.90
7814;DHT22;3952;48.364;16.022;2023-04-19T00:50:45;9.20;99.90
7814;DHT22;3952;48.364;16.022;2023-04-19T00:53:12;9.10;99.90
7814;DHT22;3952;48.364;16.022;2023-04-19T00:55:39;9.10;99.90
7814;DHT22;3952;48.364;16.022;2023-04-19T00:58:10;9.10;99.90
7814;DHT22;3952;48.364;16.022;2023-04-19T01:00:37;9.00;99.90
7814;DHT22;3952;48.364;16.022;2023-04-19T01:03:06;9.00;99.90
7814;DHT22;3952;48.364;16.022;2023-04-19T01:05:33;9.00;99.90
7814;DHT22;3952;48.364;16.022;2023-04-19T01:08:03;9.00;99.90
7814;DHT22;3952;48.364;16.022;2023-04-19T01:10:33;8.90;99.90
7814;DHT22;3952;48.364;16.022;2023-04-19T01:13:00;8.90;99.90
7814;DHT22;3952;48.364;16.022;2023-04-19T01:15:28;8.90;99.90
7814;DHT22;3952;48.364;16.022;2023-04-19T01:17:55;8.90;99.90
7814;DHT22;3952;48.364;16.022;2023-04-19T01:20:24;8.90;99.90
7814;DHT22;3952;48.364;16.022;2023-04-19T01:22:53;8.90;99.90
7814;DHT22;3952;48.364;16.022;2023-04-19T01:25:20;8.50;99.90
7814;DHT22;3952;48.364;16.022;2023-04-19T01:27:47;8.90;99.90
7814;DHT22;3952;48.364;16.022;2023-04-19T01:30:14;9.00;99.90
7814;DHT22;3952;48.364;16.022;2023-04-19T01:32:41;9.00;99.90
7814;DHT22;3952;48.364;16.022;2023-04-19T01:35:08;9.00;99.90
7814;DHT22;3952;48.364;16.022;2023-04-19T01:37:39;9.00;99.90
7814;DHT22;3952;48.364;16.022;2023-04-19T01:40:08;9.00;99.90
7814;DHT22;3952;48.364;16.022;2023-04-19T01:42:36;9.00;99.90
7814;DHT22;3952;48.364;16.022;2023-04-19T01:45:05;9.00;99.90
7814;DHT22;3952;48.364;16.022;2023-04-19T01:47:32;9.00;99.90
7814;DHT22;3952;48.364;16.022;2023-04-19T01:49:59;9.00;99.90
7814;DHT22;3952;48.364;16.022;2023-04-19T01:52:26;9.00;99.90
7814;DHT22;3952;48.364;16.022;2023-04-19T01:54:53;9.00;99.90
7814;DHT22;3952;48.364;16.022;2023-04-19T01:57:22;9.00;99.90
7814;DHT22;3952;48.364;16.022;2023-04-19T01:59:50;9.00;99.90
7814;DHT22;3952;48.364;16.022;2023-04-19T02:02:18;9.10;99.90
7814;DHT22;3952;48.364;16.022;2023-04-19T02:04:45;9.10;99.90
7814;DHT22;3952;48.364;16.022;2023-04-19T02:07:12;9.10;99.90
7814;DHT22;3952;48.364;16.022;2023-04-19T02:09:39;9.10;99.90
7814;DHT22;3952;48.364;16.022;2023-04-19T02:12:07;9.10;99.90
7814;DHT22;3952;48.364;16.022;2023-04-19T02:14:36;9.10;99.90
7814;DHT22;3952;48.364;16.022;2023-04-19T02:17:03;9.10;99.90
7814;DHT22;3952;48.364;16.022;2023-04-19T02:19:30;9.20;99.90
7814;DHT22;3952;48.364;16.022;2023-04-19T02:21:58;9.20;99.90
7814;DHT22;3952;48.364;16.022;2023-04-19T02:24:25;9.20;99.90
7814;DHT22;3952;48.364;16.022;2023-04-19T02:26:52;9.20;99.90
7814;DHT22;3952;48.364;16.022;2023-04-19T02:29:19;9.30;99.90
7814;DHT22;3952;48.364;16.022;2023-04-19T02:31:48;9.40;99.90
7814;DHT22;3952;48.364;16.022;2023-04-19T02:34:15;9.40;99.90
7814;DHT22;3952;48.364;16.022;2023-04-19T02:36:43;9.40;99.90
7814;DHT22;3952;48.364;16.022;2023-04-19T02:39:10;9.40;99.90
7814;DHT22;3952;48.364;16.022;2023-04-19T02:41:38;9.40;99.90
7814;DHT22;3952;48.364;16.022;2023-04-19T02:44:05;9.50;99.90
7814;DHT22;3952;48.364;16.022;2023-04-19T02:46:33;9.50;99.90
7814;DHT22;3952;48.364;16.022;2023-04-19T02:49:02;9.50;99.90
7814;DHT22;3952;48.364;16.022;2023-04-19T02:51:29;9.50;99.90
7814;DHT22;3952;48.364;16.022;2023-04-19T02:53:56;9.50;99.90
7814;DHT22;3952;48.364;16.022;2023-04-19T02:56:23;9.60;99.90
7814;DHT22;3952;48.364;16.022;2023-04-19T02:58:52;9.60;99.90
7814;DHT22;3952;48.364;16.022;2023-04-19T03:01:21;9.60;99.90
7814;DHT22;3952;48.364;16.022;2023-04-19T03:03:49;9.60;99.90
7814;DHT22;3952;48.364;16.022;2023-04-19T03:06:18;9.60;99.90
7814;DHT22;3952;48.364;16.022;2023-04-19T03:08:45;9.60;99.90
7814;DHT22;3952;48.364;16.022;2023-04-19T03:11:15;9.60;99.90
7814;DHT22;3952;48.364;16.022;2023-04-19T03:13:42;9.60;99.90
7814;DHT22;3952;48.364;16.022;2023-04-19T03:16:10;9.60;99.90
7814;DHT22;3952;48.364;16.022;2023-04-19T03:18:37;9.60;99.90
7814;DHT22;3952;48.364;16.022;2023-04-19T03:21:04;9.60;99.90
7814;DHT22;3952;48.364;16.022;2023-04-19T03:23:35;9.60;99.90
7814;DHT22;3952;48.364;16.022;2023-04-19T03:26:02;9.60;99.90
7814;DHT22;3952;48.364;16.022;2023-04-19T03:28:30;9.60;99.90
7814;DHT22;3952;48.364;16.022;2023-04-19T03:30:57;9.60;99.90
7814;DHT22;3952;48.364;16.022;2023-04-19T03:33:24;9.70;99.90
7814;DHT22;3952;48.364;16.022;2023-04-19T03:35:51;9.70;99.90
7814;DHT22;3952;48.364;16.022;2023-04-19T03:38:18;9.60;99.90
7814;DHT22;3952;48.364;16.022;2023-04-19T03:40:47;9.60;99.90
7814;DHT22;3952;48.364;16.022;2023-04-19T03:43:14;9.60;99.90
7814;DHT22;3952;48.364;16.022;2023-04-19T03:45:41;9.50;99.90
7814;DHT22;3952;48.364;16.022;2023-04-19T03:48:09;9.50;99.90
7814;DHT22;3952;48.364;16.022;2023-04-19T03:50:36;9.50;99.90
7814;DHT22;3952;48.364;16.022;2023-04-19T03:53:03;9.50;99.90
7814;DHT22;3952;48.364;16.022;2023-04-19T03:55:31;9.50;99.90
7814;DHT22;3952;48.364;16.022;2023-04-19T03:57:59;9.40;99.90
7814;DHT22;3952;48.364;16.022;2023-04-19T04:00:26;9.40;99.90
7814;DHT22;3952;48.364;16.022;2023-04-19T04:02:54;9.40;99.90
7814;DHT22;3952;48.364;16.022;2023-04-19T04:05:21;9.40;99.90
7814;DHT22;3952;48.364;16.022;2023-04-19T04:07:48;9.40;99.90
7814;DHT22;3952;48.364;16.022;2023-04-19T04:10:15;9.40;99.90
7814;DHT22;3952;48.364;16.022;2023-04-19T04:12:42;9.50;99.90
7814;DHT22;3952;48.364;16.022;2023-04-19T04:15:11;9.50;99.90
7814;DHT22;3952;48.364;16.022;2023-04-19T04:17:39;9.50;99.90
7814;DHT22;3952;48.364;16.022;2023-04-19T04:20:07;9.50;99.90
7814;DHT22;3952;48.364;16.022;2023-04-19T04:22:41;9.50;99.90
7814;DHT22;3952;48.364;16.022;2023-04-19T04:25:08;9.60;99.90
7814;DHT22;3952;48.364;16.022;2023-04-19T04:27:37;9.60;99.90
7814;DHT22;3952;48.364;16.022;2023-04-19T04:30:06;9.60;99.90
7814;DHT22;3952;48.364;16.022;2023-04-19T04:32:35;9.60;99.90
7814;DHT22;3952;48.364;16.022;2023-04-19T04:35:03;9.60;99.90
7814;DHT22;3952;48.364;16.022;2023-04-19T04:37:31;9.60;99.90
7814;DHT22;3952;48.364;16.022;2023-04-19T04:39:59;9.60;99.90
7814;DHT22;3952;48.364;16.022;2023-04-19T04:42:26;9.60;99.90
7814;DHT22;3952;48.364;16.022;2023-04-19T04:44:56;9.60;99.90
7814;DHT22;3952;48.364;16.022;2023-04-19T04:47:30;9.60;99.90
7814;DHT22;3952;48.364;16.022;2023-04-19T04:49:59;9.70;99.90
7814;DHT22;3952;48.364;16.022;2023-04-19T04:52:27;9.70;99.90
7814;DHT22;3952;48.364;16.022;2023-04-19T04:54:54;9.70;99.90
7814;DHT22;3952;48.364;16.022;2023-04-19T04:57:22;9.70;99.90
7814;DHT22;3952;48.364;16.022;2023-04-19T04:59:49;9.70;99.90
7814;DHT22;3952;48.364;16.022;2023-04-19T05:02:16;9.70;99.90
7814;DHT22;3952;48.364;16.022;2023-04-19T05:04:43;9.70;99.90
7814;DHT22;3952;48.364;16.022;2023-04-19T05:07:12;9.70;99.90
7814;DHT22;3952;48.364;16.022;2023-04-19T05:09:39;9.70;99.90
7814;DHT22;3952;48.364;16.022;2023-04-19T05:12:06;9.80;99.90
7814;DHT22;3952;48.364;16.022;2023-04-19T05:14:33;9.80;99.90
7814;DHT22;3952;48.364;16.022;2023-04-19T05:17:00;9.80;99.90
7814;DHT22;3952;48.364;16.022;2023-04-19T05:19:28;9.80;99.90
7814;DHT22;3952;48.364;16.022;2023-04-19T05:21:55;9.80;99.90
7814;DHT22;3952;48.364;16.022;2023-04-19T05:24:24;9.80;99.90
7814;DHT22;3952;48.364;16.022;2023-04-19T05:26:51;9.80;99.90
7814;DHT22;3952;48.364;16.022;2023-04-19T05:29:18;9.70;99.90
7814;DHT22;3952;48.364;16.022;2023-04-19T05:31:45;9.80;99.90
7814;DHT22;3952;48.364;16.022;2023-04-19T05:34:12;9.80;99.90
7814;DHT22;3952;48.364;16.022;2023-04-19T05:36:39;9.80;99.90
7814;DHT22;3952;48.364;16.022;2023-04-19T05:39:07;9.80;99.90
7814;DHT22;3952;48.364;16.022;2023-04-19T05:41:36;9.80;99.90
7814;DHT22;3952;48.364;16.022;2023-04-19T05:44:03;9.80;99.90
7814;DHT22;3952;48.364;16.022;2023-04-19T05:46:31;9.80;99.90
7814;DHT22;3952;48.364;16.022;2023-04-19T05:48:58;9.80;99.90
7814;DHT22;3952;48.364;16.022;2023-04-19T05:51:25;9.80;99.90
7814;DHT22;3952;48.364;16.022;2023-04-19T05:53:53;9.90;99.90
7814;DHT22;3952;48.364;16.022;2023-04-19T05:56:20;9.90;99.90
7814;DHT22;3952;48.364;16.022;2023-04-19T05:58:48;9.90;99.90
7814;DHT22;3952;48.364;16.022;2023-04-19T06:01:16;9.90;99.90
7814;DHT22;3952;48.364;16.022;2023-04-19T06:03:43;9.90;99.90
7814;DHT22;3952;48.364;16.022;2023-04-19T06:06:10;9.90;99.90
7814;DHT22;3952;48.364;16.022;2023-04-19T06:08:37;9.90;99.90
7814;DHT22;3952;48.364;16.022;2023-04-19T06:11:04;9.80;99.90
7814;DHT22;3952;48.364;16.022;2023-04-19T06:13:32;9.80;99.90
7814;DHT22;3952;48.364;16.022;2023-04-19T06:16:00;9.80;99.90
7814;DHT22;3952;48.364;16.022;2023-04-19T06:18:28;9.80;99.90
7814;DHT22;3952;48.364;16.022;2023-04-19T06:20:55;9.80;99.90
7814;DHT22;3952;48.364;16.022;2023-04-19T06:23:22;9.80;99.90
7814;DHT22;3952;48.364;16.022;2023-04-19T06:25:50;9.80;99.90
7814;DHT22;3952;48.364;16.022;2023-04-19T06:28:17;9.80;99.90
7814;DHT22;3952;48.364;16.022;2023-04-19T06:30:45;9.70;99.90
7814;DHT22;3952;48.364;16.022;2023-04-19T06:33:14;9.70;99.90
7814;DHT22;3952;48.364;16.022;2023-04-19T06:35:41;9.80;99.90
7814;DHT22;3952;48.364;16.022;2023-04-19T06:38:08;9.70;99.90
7814;DHT22;3952;48.364;16.022;2023-04-19T06:40:35;9.70;99.90
7814;DHT22;3952;48.364;16.022;2023-04-19T06:43:02;9.70;99.90
7814;DHT22;3952;48.364;16.022;2023-04-19T06:45:29;9.70;99.90
7814;DHT22;3952;48.364;16.022;2023-04-19T06:47:57;9.70;99.90
7814;DHT22;3952;48.364;16.022;2023-04-19T06:50:25;9.70;99.90
7814;DHT22;3952;48.364;16.022;2023-04-19T06:52:53;9.70;99.90
7814;DHT22;3952;48.364;16.022;2023-04-19T06:55:20;9.80;99.90
7814;DHT22;3952;48.364;16.022;2023-04-19T06:57:47;9.70;99.90
7814;DHT22;3952;48.364;16.022;2023-04-19T07:00:15;9.70;99.90
7814;DHT22;3952;48.364;16.022;2023-04-19T07:02:43;9.70;99.90
7814;DHT22;3952;48.364;16.022;2023-04-19T07:05:10;9.70;99.90
7814;DHT22;3952;48.364;16.022;2023-04-19T07:07:40;9.80;99.90
7814;DHT22;3952;48.364;16.022;2023-04-19T07:10:08;9.80;99.90
7814;DHT22;3952;48.364;16.022;2023-04-19T07:12:35;9.80;99.90
7814;DHT22;3952;48.364;16.022;2023-04-19T07:15:04;9.80;99.90
7814;DHT22;3952;48.364;16.022;2023-04-19T07:17:32;9.80;99.90
7814;DHT22;3952;48.364;16.022;2023-04-19T07:19:59;9.80;99.90
7814;DHT22;3952;48.364;16.022;2023-04-19T07:22:27;9.80;99.90
7814;DHT22;3952;48.364;16.022;2023-04-19T07:24:55;9.90;99.90
7814;DHT22;3952;48.364;16.022;2023-04-19T07:27:23;9.80;99.90
7814;DHT22;3952;48.364;16.022;2023-04-19T07:29:52;9.90;99.90
7814;DHT22;3952;48.364;16.022;2023-04-19T07:32:19;9.90;99.90
7814;DHT22;3952;48.364;16.022;2023-04-19T07:34:46;9.90;99.90
7814;DHT22;3952;48.364;16.022;2023-04-19T07:37:13;9.90;99.90
7814;DHT22;3952;48.364;16.022;2023-04-19T07:39:40;9.90;99.90
7814;DHT22;3952;48.364;16.022;2023-04-19T07:42:09;10.00;99.90
7814;DHT22;3952;48.364;16.022;2023-04-19T07:44:36;10.00;99.90
7814;DHT22;3952;48.364;16.022;2023-04-19T07:47:03;10.00;99.90
7814;DHT22;3952;48.364;16.022;2023-04-19T07:49:31;10.00;99.90
7814;DHT22;3952;48.364;16.022;2023-04-19T07:51:59;10.10;99.90
7814;DHT22;3952;48.364;16.022;2023-04-19T07:54:26;10.00;99.90
7814;DHT22;3952;48.364;16.022;2023-04-19T07:56:54;10.10;99.90
7814;DHT22;3952;48.364;16.022;2023-04-19T07:59:25;10.10;99.90
7814;DHT22;3952;48.364;16.022;2023-04-19T08:01:52;10.10;99.90
7814;DHT22;3952;48.364;16.022;2023-04-19T08:04:19;10.10;99.90
7814;DHT22;3952;48.364;16.022;2023-04-19T08:06:47;10.10;99.90
7814;DHT22;3952;48.364;16.022;2023-04-19T08:09:14;10.10;99.90
7814;DHT22;3952;48.364;16.022;2023-04-19T08:11:42;10.20;99.90
7814;DHT22;3952;48.364;16.022;2023-04-19T08:14:09;10.10;99.90
7814;DHT22;3952;48.364;16.022;2023-04-19T08:16:38;10.20;99.90
7814;DHT22;3952;48.364;16.022;2023-04-19T08:19:05;10.10;99.90
7814;DHT22;3952;48.364;16.022;2023-04-19T08:21:32;10.20;99.90
7814;DHT22;3952;48.364;16.022;2023-04-19T08:23:59;10.20;99.90
7814;DHT22;3952;48.364;16.022;2023-04-19T08:26:27;10.20;99.90
7814;DHT22;3952;48.364;16.022;2023-04-19T08:28:54;10.20;99.90
7814;DHT22;3952;48.364;16.022;2023-04-19T08:31:21;10.20;99.90
7814;DHT22;3952;48.364;16.022;2023-04-19T08:33:50;10.20;99.90
7814;DHT22;3952;48.364;16.022;2023-04-19T08:36:17;10.20;99.90
7814;DHT22;3952;48.364;16.022;2023-04-19T08:38:44;10.20;99.90
7814;DHT22;3952;48.364;16.022;2023-04-19T08:41:13;10.20;99.90
7814;DHT22;3952;48.364;16.022;2023-04-19T08:43:43;10.20;99.90
7814;DHT22;3952;48.364;16.022;2023-04-19T08:46:11;10.30;99.90
7814;DHT22;3952;48.364;16.022;2023-04-19T08:48:40;10.30;99.90
7814;DHT22;3952;48.364;16.022;2023-04-19T08:51:10;10.30;99.90
7814;DHT22;3952;48.364;16.022;2023-04-19T08:53:39;10.30;99.90
7814;DHT22;3952;48.364;16.022;2023-04-19T08:56:07;11.50;99.90
7814;DHT22;3952;48.364;16.022;2023-04-19T08:58:34;10.40;99.90
7814;DHT22;3952;48.364;16.022;2023-04-19T09:01:04;10.40;99.90
7814;DHT22;3952;48.364;16.022;2023-04-19T09:03:31;10.40;99.90
7814;DHT22;3952;48.364;16.022;2023-04-19T09:06:00;10.40;99.90
7814;DHT22;3952;48.364;16.022;2023-04-19T09:08:29;10.40;99.90
7814;DHT22;3952;48.364;16.022;2023-04-19T09:10:58;10.40;99.90
7814;DHT22;3952;48.364;16.022;2023-04-19T09:13:26;10.40;99.90
7814;DHT22;3952;48.364;16.022;2023-04-19T09:15:54;10.50;99.90
7814;DHT22;3952;48.364;16.022;2023-04-19T09:18:24;10.50;99.90
7814;DHT22;3952;48.364;16.022;2023-04-19T09:20:51;10.50;99.90
7814;DHT22;3952;48.364;16.022;2023-04-19T09:23:23;10.50;99.90
7814;DHT22;3952;48.364;16.022;2023-04-19T09:25:54;10.60;99.90
7814;DHT22;3952;48.364;16.022;2023-04-19T09:28:22;10.60;99.90
7814;DHT22;3952;48.364;16.022;2023-04-19T09:30:50;10.70;99.90
7814;DHT22;3952;48.364;16.022;2023-04-19T09:33:33;10.70;99.90
7814;DHT22;3952;48.364;16.022;2023-04-19T09:36:02;10.70;99.90
7814;DHT22;3952;48.364;16.022;2023-04-19T09:38:29;10.80;99.90
7814;DHT22;3952;48.364;16.022;2023-04-19T09:41:08;10.80;99.90
7814;DHT22;3952;48.364;16.022;2023-04-19T09:43:35;10.80;99.90
7814;DHT22;3952;48.364;16.022;2023-04-19T09:46:02;10.80;99.90
7814;DHT22;3952;48.364;16.022;2023-04-19T09:48:29;10.90;99.90
7814;DHT22;3952;48.364;16.022;2023-04-19T09:50:58;10.90;99.90
7814;DHT22;3952;48.364;16.022;2023-04-19T09:53:27;10.90;99.90
7814;DHT22;3952;48.364;16.022;2023-04-19T09:55:54;11.00;99.90
7814;DHT22;3952;48.364;16.022;2023-04-19T09:58:23;11.10;99.90
7814;DHT22;3952;48.364;16.022;2023-04-19T10:00:51;11.10;99.90
7814;DHT22;3952;48.364;16.022;2023-04-19T10:03:19;11.10;99.90
7814;DHT22;3952;48.364;16.022;2023-04-19T10:05:49;11.20;99.90
7814;DHT22;3952;48.364;16.022;2023-04-19T10:08:17;11.20;99.90
7814;DHT22;3952;48.364;16.022;2023-04-19T10:10:46;11.20;99.90
7814;DHT22;3952;48.364;16.022;2023-04-19T10:13:19;11.20;99.90
7814;DHT22;3952;48.364;16.022;2023-04-19T10:15:49;11.20;99.90
7814;DHT22;3952;48.364;16.022;2023-04-19T10:18:17;11.30;99.90
7814;DHT22;3952;48.364;16.022;2023-04-19T10:20:49;11.30;99.90
7814;DHT22;3952;48.364;16.022;2023-04-19T10:23:19;11.20;99.90
7814;DHT22;3952;48.364;16.022;2023-04-19T10:25:47;11.20;99.90
7814;DHT22;3952;48.364;16.022;2023-04-19T10:28:15;11.20;99.90
7814;DHT22;3952;48.364;16.022;2023-04-19T10:30:54;11.10;99.90
7814;DHT22;3952;48.364;16.022;2023-04-19T10:33:25;11.10;99.90
7814;DHT22;3952;48.364;16.022;2023-04-19T10:35:55;11.20;99.90
7814;DHT22;3952;48.364;16.022;2023-04-19T10:38:37;11.20;99.90
7814;DHT22;3952;48.364;16.022;2023-04-19T10:41:05;11.30;99.90
7814;DHT22;3952;48.364;16.022;2023-04-19T10:43:37;11.30;99.90
7814;DHT22;3952;48.364;16.022;2023-04-19T10:46:14;11.30;99.90
7814;DHT22;3952;48.364;16.022;2023-04-19T10:48:52;11.30;99.90
7814;DHT22;3952;48.364;16.022;2023-04-19T10:51:21;11.20;99.90
7814;DHT22;3952;48.364;16.022;2023-04-19T10:53:53;11.10;99.90
7814;DHT22;3952;48.364;16.022;2023-04-19T10:59:15;11.00;99.90
7814;DHT22;3952;48.364;16.022;2023-04-19T11:01:54;11.00;99.90
7814;DHT22;3952;48.364;16.022;2023-04-19T11:07:39;11.00;99.90
7814;DHT22;3952;48.364;16.022;2023-04-19T11:10:08;11.00;99.90
7814;DHT22;3952;48.364;16.022;2023-04-19T11:12:36;11.00;99.90
7814;DHT22;3952;48.364;16.022;2023-04-19T11:15:05;11.00;99.90
7814;DHT22;3952;48.364;16.022;2023-04-19T11:17:35;10.90;99.90
7814;DHT22;3952;48.364;16.022;2023-04-19T11:20:06;10.90;99.90
7814;DHT22;3952;48.364;16.022;2023-04-19T11:22:35;10.90;99.90
7814;DHT22;3952;48.364;16.022;2023-04-19T11:25:08;11.00;99.90
7814;DHT22;3952;48.364;16.022;2023-04-19T11:27:37;10.90;99.90
7814;DHT22;3952;48.364;16.022;2023-04-19T11:30:07;10.90;99.90
7814;DHT22;3952;48.364;16.022;2023-04-19T11:32:43;10.80;99.90
7814;DHT22;3952;48.364;16.022;2023-04-19T11:35:11;10.80;99.90
7814;DHT22;3952;48.364;16.022;2023-04-19T11:37:38;10.70;99.90
7814;DHT22;3952;48.364;16.022;2023-04-19T11:40:07;10.70;99.90
7814;DHT22;3952;48.364;16.022;2023-04-19T11:42:56;10.70;99.90
7814;DHT22;3952;48.364;16.022;2023-04-19T11:45:26;10.50;99.90
7814;DHT22;3952;48.364;16.022;2023-04-19T11:47:55;10.50;99.90
7814;DHT22;3952;48.364;16.022;2023-04-19T11:50:33;10.40;99.90
7814;DHT22;3952;48.364;16.022;2023-04-19T11:53:12;10.30;99.90
7814;DHT22;3952;48.364;16.022;2023-04-19T11:55:42;10.20;99.90
7814;DHT22;3952;48.364;16.022;2023-04-19T11:58:22;10.20;99.90
7814;DHT22;3952;48.364;16.022;2023-04-19T12:00:49;10.20;99.90
7814;DHT22;3952;48.364;16.022;2023-04-19T12:03:21;10.10;99.90
7814;DHT22;3952;48.364;16.022;2023-04-19T12:05:53;10.10;99.90
7814;DHT22;3952;48.364;16.022;2023-04-19T12:08:30;10.10;99.90
7814;DHT22;3952;48.364;16.022;2023-04-19T12:10:58;10.10;99.90
7814;DHT22;3952;48.364;16.022;2023-04-19T12:13:25;10.20;99.90
7814;DHT22;3952;48.364;16.022;2023-04-19T12:15:52;10.30;99.90
7814;DHT22;3952;48.364;16.022;2023-04-19T12:18:21;10.30;99.90
7814;DHT22;3952;48.364;16.022;2023-04-19T12:20:50;10.40;99.90
7814;DHT22;3952;48.364;16.022;2023-04-19T12:23:18;10.40;99.90
7814;DHT22;3952;48.364;16.022;2023-04-19T12:25:47;10.50;99.90
7814;DHT22;3952;48.364;16.022;2023-04-19T12:28:15;10.50;99.90
7814;DHT22;3952;48.364;16.022;2023-04-19T12:30:42;10.60;99.90
7814;DHT22;3952;48.364;16.022;2023-04-19T12:33:09;10.70;99.90
7814;DHT22;3952;48.364;16.022;2023-04-19T12:35:38;10.70;99.90
7814;DHT22;3952;48.364;16.022;2023-04-19T12:38:05;10.70;99.90
7814;DHT22;3952;48.364;16.022;2023-04-19T12:40:33;10.80;99.90
7814;DHT22;3952;48.364;16.022;2023-04-19T12:43:00;10.90;99.90
7814;DHT22;3952;48.364;16.022;2023-04-19T12:45:28;11.00;99.90
7814;DHT22;3952;48.364;16.022;2023-04-19T12:47:55;11.10;99.90
7814;DHT22;3952;48.364;16.022;2023-04-19T12:50:22;11.10;99.90
7814;DHT22;3952;48.364;16.022;2023-04-19T12:52:51;11.10;99.90
7814;DHT22;3952;48.364;16.022;2023-04-19T12:55:18;11.20;99.90
7814;DHT22;3952;48.364;16.022;2023-04-19T12:57:45;11.20;99.90
7814;DHT22;3952;48.364;16.022;2023-04-19T13:00:14;11.30;99.90
7814;DHT22;3952;48.364;16.022;2023-04-19T13:02:42;11.30;99.90
7814;DHT22;3952;48.364;16.022;2023-04-19T13:05:09;11.30;99.90
7814;DHT22;3952;48.364;16.022;2023-04-19T13:07:37;11.30;99.90
7814;DHT22;3952;48.364;16.022;2023-04-19T13:10:08;11.30;99.90
7814;DHT22;3952;48.364;16.022;2023-04-19T13:12:35;11.30;99.90
7814;DHT22;3952;48.364;16.022;2023-04-19T13:15:03;11.30;99.90
7814;DHT22;3952;48.364;16.022;2023-04-19T13:17:30;11.30;99.90
7814;DHT22;3952;48.364;16.022;2023-04-19T13:19:57;11.40;99.90
7814;DHT22;3952;48.364;16.022;2023-04-19T13:22:25;11.40;99.90
7814;DHT22;3952;48.364;16.022;2023-04-19T13:24:52;11.40;99.90
7814;DHT22;3952;48.364;16.022;2023-04-19T13:27:21;11.40;99.90
7814;DHT22;3952;48.364;16.022;2023-04-19T13:29:48;11.40;99.90
7814;DHT22;3952;48.364;16.022;2023-04-19T13:32:16;11.30;99.90
7814;DHT22;3952;48.364;16.022;2023-04-19T13:34:43;11.20;99.90
7814;DHT22;3952;48.364;16.022;2023-04-19T13:37:19;11.00;99.90
7814;DHT22;3952;48.364;16.022;2023-04-19T13:39:46;10.80;99.90
7814;DHT22;3952;48.364;16.022;2023-04-19T13:42:13;10.50;99.90
7814;DHT22;3952;48.364;16.022;2023-04-19T13:44:42;10.40;99.90
7814;DHT22;3952;48.364;16.022;2023-04-19T13:47:09;10.30;99.90
7814;DHT22;3952;48.364;16.022;2023-04-19T13:49:36;10.40;99.90
7814;DHT22;3952;48.364;16.022;2023-04-19T13:52:04;10.10;99.90
7814;DHT22;3952;48.364;16.022;2023-04-19T13:54:31;10.00;99.90
7814;DHT22;3952;48.364;16.022;2023-04-19T13:56:58;10.00;99.90
7814;DHT22;3952;48.364;16.022;2023-04-19T13:59:25;9.90;99.90
7814;DHT22;3952;48.364;16.022;2023-04-19T14:01:54;9.90;99.90
7814;DHT22;3952;48.364;16.022;2023-04-19T14:04:21;9.90;99.90
7814;DHT22;3952;48.364;16.022;2023-04-19T14:06:48;9.80;99.90
7814;DHT22;3952;48.364;16.022;2023-04-19T14:09:16;9.80;99.90
7814;DHT22;3952;48.364;16.022;2023-04-19T14:11:43;9.80;99.90
7814;DHT22;3952;48.364;16.022;2023-04-19T14:14:10;9.80;99.90
7814;DHT22;3952;48.364;16.022;2023-04-19T14:16:37;9.80;99.90
7814;DHT22;3952;48.364;16.022;2023-04-19T14:19:06;9.90;99.90
7814;DHT22;3952;48.364;16.022;2023-04-19T14:21:33;9.90;99.90
7814;DHT22;3952;48.364;16.022;2023-04-19T14:24:00;10.00;99.90
7814;DHT22;3952;48.364;16.022;2023-04-19T14:26:28;10.10;99.90
7814;DHT22;3952;48.364;16.022;2023-04-19T14:28:55;10.10;99.90
7814;DHT22;3952;48.364;16.022;2023-04-19T14:31:22;10.20;99.90
7814;DHT22;3952;48.364;16.022;2023-04-19T14:33:49;10.30;99.90
7814;DHT22;3952;48.364;16.022;2023-04-19T14:36:18;10.30;99.90
7814;DHT22;3952;48.364;16.022;2023-04-19T14:38:45;10.40;99.90
7814;DHT22;3952;48.364;16.022;2023-04-19T14:41:12;10.50;99.90
7814;DHT22;3952;48.364;16.022;2023-04-19T14:43:40;10.60;99.90
7814;DHT22;3952;48.364;16.022;2023-04-19T14:46:07;10.60;99.90
7814;DHT22;3952;48.364;16.022;2023-04-19T14:48:34;10.80;99.90
7814;DHT22;3952;48.364;16.022;2023-04-19T14:51:01;10.80;99.90
7814;DHT22;3952;48.364;16.022;2023-04-19T14:53:30;10.90;99.90
7814;DHT22;3952;48.364;16.022;2023-04-19T14:55:57;11.00;99.90
7814;DHT22;3952;48.364;16.022;2023-04-19T14:58:24;11.10;99.90
7814;DHT22;3952;48.364;16.022;2023-04-19T15:00:51;11.20;99.90
7814;DHT22;3952;48.364;16.022;2023-04-19T15:03:19;11.30;99.90
7814;DHT22;3952;48.364;16.022;2023-04-19T15:05:47;11.30;99.90
7814;DHT22;3952;48.364;16.022;2023-04-19T15:08:14;11.40;99.90
7814;DHT22;3952;48.364;16.022;2023-04-19T15:10:42;11.50;99.90
7814;DHT22;3952;48.364;16.022;2023-04-19T15:13:10;11.50;99.90
7814;DHT22;3952;48.364;16.022;2023-04-19T15:15:37;11.60;99.90
7814;DHT22;3952;48.364;16.022;2023-04-19T15:18:04;11.70;99.90
7814;DHT22;3952;48.364;16.022;2023-04-19T15:20:31;11.70;99.90
7814;DHT22;3952;48.364;16.022;2023-04-19T15:22:58;11.70;99.90
7814;DHT22;3952;48.364;16.022;2023-04-19T15:25:26;11.70;99.90
7814;DHT22;3952;48.364;16.022;2023-04-19T15:27:54;11.70;99.90
7814;DHT22;3952;48.364;16.022;2023-04-19T15:30:21;11.80;99.90
7814;DHT22;3952;48.364;16.022;2023-04-19T15:32:48;11.80;99.90
7814;DHT22;3952;48.364;16.022;2023-04-19T15:35:16;11.80;99.90
7814;DHT22;3952;48.364;16.022;2023-04-19T15:37:43;11.80;99.90
7814;DHT22;3952;48.364;16.022;2023-04-19T15:40:11;11.80;99.90
7814;DHT22;3952;48.364;16.022;2023-04-19T15:42:39;11.80;99.90
7814;DHT22;3952;48.364;16.022;2023-04-19T15:45:08;11.80;99.90
7814;DHT22;3952;48.364;16.022;2023-04-19T15:47:37;11.70;99.90
7814;DHT22;3952;48.364;16.022;2023-04-19T15:50:05;11.70;99.90
7814;DHT22;3952;48.364;16.022;2023-04-19T15:52:33;11.60;99.90
7814;DHT22;3952;48.364;16.022;2023-04-19T15:55:00;11.60;99.90
7814;DHT22;3952;48.364;16.022;2023-04-19T15:57:28;11.60;99.90
7814;DHT22;3952;48.364;16.022;2023-04-19T15:59:55;11.60;99.90
7814;DHT22;3952;48.364;16.022;2023-04-19T16:02:23;11.70;99.90
7814;DHT22;3952;48.364;16.022;2023-04-19T16:04:51;11.60;99.90
7814;DHT22;3952;48.364;16.022;2023-04-19T16:07:18;11.60;99.90